sensor_id;sensor_type;location;lat;lon;timestamp;P1;durP1;ratioP1;P2;durP2;ratioP2
76310;SDS011;65120;59.304;18.294;2023-12-07T00:01:45;9.68;;;3.40;;
76310;SDS011;65120;59.304;18.294;2023-12-07T00:04:12;10.98;;;4.03;;
76310;SDS011;65120;59.304;18.294;2023-12-07T00:06:39;10.57;;;4.13;;
76310;SDS011;65120;59.304;18.294;2023-12-07T00:09:06;12.85;;;3.58;;
76310;SDS011;65120;59.304;18.294;2023-12-07T00:11:34;10.98;;;3.55;;
76310;SDS011;65120;59.304;18.294;2023-12-07T00:14:01;9.65;;;3.55;;
76310;SDS011;65120;59.304;18.294;2023-12-07T00:16:28;8.90;;;3.15;;
76310;SDS011;65120;59.304;18.294;2023-12-07T00:18:55;9.13;;;2.85;;
76310;SDS011;65120;59.304;18.294;2023-12-07T00:21:22;10.50;;;3.75;;
76310;SDS011;65120;59.304;18.294;2023-12-07T00:23:49;10.10;;;3.47;;
76310;SDS011;65120;59.304;18.294;2023-12-07T00:26:16;11.40;;;3.95;;
76310;SDS011;65120;59.304;18.294;2023-12-07T00:28:44;11.82;;;3.13;;
76310;SDS011;65120;59.304;18.294;2023-12-07T00:31:11;9.38;;;3.00;;
76310;SDS011;65120;59.304;18.294;2023-12-07T00:33:38;10.68;;;3.42;;
76310;SDS011;65120;59.304;18.294;2023-12-07T00:36:05;7.82;;;2.38;;
76310;SDS011;65120;59.304;18.294;2023-12-07T00:38:33;8.90;;;3.95;;
76310;SDS011;65120;59.304;18.294;2023-12-07T00:41:01;5.88;;;2.78;;
76310;SDS011;65120;59.304;18.294;2023-12-07T00:43:28;8.82;;;3.40;;
76310;SDS011;65120;59.304;18.294;2023-12-07T00:45:56;7.85;;;3.05;;
76310;SDS011;65120;59.304;18.294;2023-12-07T00:48:24;9.13;;;3.15;;
76310;SDS011;65120;59.304;18.294;2023-12-07T00:50:50;8.25;;;2.95;;
76310;SDS011;65120;59.304;18.294;2023-12-07T00:53:17;6.25;;;2.85;;
76310;SDS011;65120;59.304;18.294;2023-12-07T00:55:44;7.22;;;2.10;;
76310;SDS011;65120;59.304;18.294;2023-12-07T00:58:11;9.43;;;2.53;;
76310;SDS011;65120;59.304;18.294;2023-12-07T01:00:39;7.35;;;2.50;;
76310;SDS011;65120;59.304;18.294;2023-12-07T01:03:07;5.10;;;2.00;;
76310;SDS011;65120;59.304;18.294;2023-12-07T01:05:34;5.78;;;1.90;;
76310;SDS011;65120;59.304;18.294;2023-12-07T01:08:01;8.25;;;2.15;;
76310;SDS011;65120;59.304;18.294;2023-12-07T01:10:28;7.60;;;1.95;;
76310;SDS011;65120;59.304;18.294;2023-12-07T01:12:55;5.75;;;1.75;;
76310;SDS011;65120;59.304;18.294;2023-12-07T01:15:22;6.10;;;1.73;;
76310;SDS011;65120;59.304;18.294;2023-12-07T01:17:49;3.72;;;1.63;;
76310;SDS011;65120;59.304;18.294;2023-12-07T01:20:17;5.78;;;1.52;;
76310;SDS011;65120;59.304;18.294;2023-12-07T01:22:45;5.93;;;2.08;;
76310;SDS011;65120;59.304;18.294;2023-12-07T01:25:12;5.10;;;1.48;;
76310;SDS011;65120;59.304;18.294;2023-12-07T01:27:45;9.30;;;1.98;;
76310;SDS011;65120;59.304;18.294;2023-12-07T01:30:12;5.25;;;1.42;;
76310;SDS011;65120;59.304;18.294;2023-12-07T01:32:39;3.70;;;1.02;;
76310;SDS011;65120;59.304;18.294;2023-12-07T01:35:06;4.75;;;0.90;;
76310;SDS011;65120;59.304;18.294;2023-12-07T01:37:35;2.70;;;1.00;;
76310;SDS011;65120;59.304;18.294;2023-12-07T01:40:02;7.35;;;1.23;;
76310;SDS011;65120;59.304;18.294;2023-12-07T01:42:35;3.33;;;1.02;;
76310;SDS011;65120;59.304;18.294;2023-12-07T01:45:02;2.35;;;0.98;;
76310;SDS011;65120;59.304;18.294;2023-12-07T01:47:30;2.83;;;0.80;;
76310;SDS011;65120;59.304;18.294;2023-12-07T01:49:58;3.10;;;1.17;;
76310;SDS011;65120;59.304;18.294;2023-12-07T01:52:25;3.42;;;0.90;;
76310;SDS011;65120;59.304;18.294;2023-12-07T01:54:56;2.25;;;1.42;;
76310;SDS011;65120;59.304;18.294;2023-12-07T01:57:24;3.35;;;1.35;;
76310;SDS011;65120;59.304;18.294;2023-12-07T01:59:51;2.63;;;0.90;;
76310;SDS011;65120;59.304;18.294;2023-12-07T02:02:18;3.17;;;0.93;;
76310;SDS011;65120;59.304;18.294;2023-12-07T02:04:45;1.83;;;1.00;;
76310;SDS011;65120;59.304;18.294;2023-12-07T02:07:12;3.85;;;1.08;;
76310;SDS011;65120;59.304;18.294;2023-12-07T02:09:39;2.67;;;1.13;;
76310;SDS011;65120;59.304;18.294;2023-12-07T02:12:07;2.95;;;1.30;;
76310;SDS011;65120;59.304;18.294;2023-12-07T02:14:34;3.45;;;1.45;;
76310;SDS011;65120;59.304;18.294;2023-12-07T02:17:04;6.95;;;2.20;;
76310;SDS011;65120;59.304;18.294;2023-12-07T02:19:48;4.80;;;1.08;;
76310;SDS011;65120;59.304;18.294;2023-12-07T02:22:21;3.85;;;1.10;;
76310;SDS011;65120;59.304;18.294;2023-12-07T02:24:59;5.13;;;1.58;;
76310;SDS011;65120;59.304;18.294;2023-12-07T02:27:35;3.88;;;0.95;;
76310;SDS011;65120;59.304;18.294;2023-12-07T02:30:02;2.60;;;1.13;;
76310;SDS011;65120;59.304;18.294;2023-12-07T02:32:30;3.88;;;1.30;;
76310;SDS011;65120;59.304;18.294;2023-12-07T02:34:57;2.95;;;1.00;;
76310;SDS011;65120;59.304;18.294;2023-12-07T02:37:26;4.93;;;1.38;;
76310;SDS011;65120;59.304;18.294;2023-12-07T02:39:55;4.53;;;1.70;;
76310;SDS011;65120;59.304;18.294;2023-12-07T02:42:23;3.95;;;1.17;;
76310;SDS011;65120;59.304;18.294;2023-12-07T02:44:53;3.75;;;0.90;;
76310;SDS011;65120;59.304;18.294;2023-12-07T02:47:21;3.63;;;1.27;;
76310;SDS011;65120;59.304;18.294;2023-12-07T02:49:48;2.85;;;0.88;;
76310;SDS011;65120;59.304;18.294;2023-12-07T02:52:15;1.63;;;0.63;;
76310;SDS011;65120;59.304;18.294;2023-12-07T02:54:42;2.33;;;1.10;;
76310;SDS011;65120;59.304;18.294;2023-12-07T02:57:09;3.08;;;0.70;;
76310;SDS011;65120;59.304;18.294;2023-12-07T02:59:36;3.53;;;0.77;;
76310;SDS011;65120;59.304;18.294;2023-12-07T03:02:04;1.88;;;0.60;;
76310;SDS011;65120;59.304;18.294;2023-12-07T03:04:31;4.68;;;0.98;;
76310;SDS011;65120;59.304;18.294;2023-12-07T03:06:58;2.25;;;0.98;;
76310;SDS011;65120;59.304;18.294;2023-12-07T03:09:25;3.65;;;1.17;;
76310;SDS011;65120;59.304;18.294;2023-12-07T03:11:52;2.33;;;0.70;;
76310;SDS011;65120;59.304;18.294;2023-12-07T03:14:19;4.55;;;1.00;;
76310;SDS011;65120;59.304;18.294;2023-12-07T03:16:46;2.40;;;0.60;;
76310;SDS011;65120;59.304;18.294;2023-12-07T03:19:14;5.40;;;0.98;;
76310;SDS011;65120;59.304;18.294;2023-12-07T03:21:42;2.03;;;1.20;;
76310;SDS011;65120;59.304;18.294;2023-12-07T03:24:09;2.45;;;0.98;;
76310;SDS011;65120;59.304;18.294;2023-12-07T03:26:36;3.30;;;1.35;;
76310;SDS011;65120;59.304;18.294;2023-12-07T03:29:03;2.85;;;0.80;;
76310;SDS011;65120;59.304;18.294;2023-12-07T03:31:30;2.42;;;1.20;;
76310;SDS011;65120;59.304;18.294;2023-12-07T03:33:57;4.07;;;0.95;;
76310;SDS011;65120;59.304;18.294;2023-12-07T03:36:27;4.38;;;1.35;;
76310;SDS011;65120;59.304;18.294;2023-12-07T03:38:54;3.17;;;0.95;;
76310;SDS011;65120;59.304;18.294;2023-12-07T03:41:21;3.58;;;1.00;;
76310;SDS011;65120;59.304;18.294;2023-12-07T03:43:48;3.00;;;1.00;;
76310;SDS011;65120;59.304;18.294;2023-12-07T03:46:15;2.42;;;0.90;;
76310;SDS011;65120;59.304;18.294;2023-12-07T03:48:43;3.30;;;0.93;;
76310;SDS011;65120;59.304;18.294;2023-12-07T03:51:12;2.45;;;0.98;;
76310;SDS011;65120;59.304;18.294;2023-12-07T03:53:43;1.50;;;0.57;;
76310;SDS011;65120;59.304;18.294;2023-12-07T03:56:10;3.50;;;0.80;;
76310;SDS011;65120;59.304;18.294;2023-12-07T03:58:37;1.88;;;0.65;;
76310;SDS011;65120;59.304;18.294;2023-12-07T04:01:04;4.95;;;0.82;;
76310;SDS011;65120;59.304;18.294;2023-12-07T04:03:31;2.05;;;0.70;;
76310;SDS011;65120;59.304;18.294;2023-12-07T04:05:58;1.05;;;0.70;;
76310;SDS011;65120;59.304;18.294;2023-12-07T04:08:25;0.90;;;0.60;;
76310;SDS011;65120;59.304;18.294;2023-12-07T04:10:54;1.92;;;0.50;;
76310;SDS011;65120;59.304;18.294;2023-12-07T04:13:20;2.55;;;0.40;;
76310;SDS011;65120;59.304;18.294;2023-12-07T04:15:47;3.92;;;0.70;;
76310;SDS011;65120;59.304;18.294;2023-12-07T04:18:14;2.60;;;0.90;;
76310;SDS011;65120;59.304;18.294;2023-12-07T04:20:42;1.10;;;0.50;;
76310;SDS011;65120;59.304;18.294;2023-12-07T04:23:09;1.92;;;0.85;;
76310;SDS011;65120;59.304;18.294;2023-12-07T04:25:35;2.72;;;0.90;;
76310;SDS011;65120;59.304;18.294;2023-12-07T04:28:04;2.38;;;0.70;;
76310;SDS011;65120;59.304;18.294;2023-12-07T04:30:31;2.15;;;0.85;;
76310;SDS011;65120;59.304;18.294;2023-12-07T04:32:58;1.40;;;0.60;;
76310;SDS011;65120;59.304;18.294;2023-12-07T04:35:25;1.83;;;0.52;;
76310;SDS011;65120;59.304;18.294;2023-12-07T04:37:53;2.15;;;0.63;;
76310;SDS011;65120;59.304;18.294;2023-12-07T04:40:20;2.50;;;0.90;;
76310;SDS011;65120;59.304;18.294;2023-12-07T04:42:47;1.92;;;0.60;;
76310;SDS011;65120;59.304;18.294;2023-12-07T04:45:16;3.17;;;0.70;;
76310;SDS011;65120;59.304;18.294;2023-12-07T04:47:42;1.83;;;0.68;;
76310;SDS011;65120;59.304;18.294;2023-12-07T04:50:10;2.92;;;0.80;;
76310;SDS011;65120;59.304;18.294;2023-12-07T04:52:37;1.45;;;0.60;;
76310;SDS011;65120;59.304;18.294;2023-12-07T04:55:03;1.52;;;0.70;;
76310;SDS011;65120;59.304;18.294;2023-12-07T04:57:31;1.70;;;0.60;;
76310;SDS011;65120;59.304;18.294;2023-12-07T04:59:58;0.90;;;0.50;;
76310;SDS011;65120;59.304;18.294;2023-12-07T05:02:27;1.50;;;0.70;;
76310;SDS011;65120;59.304;18.294;2023-12-07T05:04:54;1.40;;;0.52;;
76310;SDS011;65120;59.304;18.294;2023-12-07T05:07:21;1.92;;;0.60;;
76310;SDS011;65120;59.304;18.294;2023-12-07T05:09:48;0.93;;;0.45;;
76310;SDS011;65120;59.304;18.294;2023-12-07T05:12:16;2.25;;;0.82;;
76310;SDS011;65120;59.304;18.294;2023-12-07T05:14:43;2.30;;;0.50;;
76310;SDS011;65120;59.304;18.294;2023-12-07T05:17:10;2.63;;;0.65;;
76310;SDS011;65120;59.304;18.294;2023-12-07T05:19:37;2.05;;;0.60;;
76310;SDS011;65120;59.304;18.294;2023-12-07T05:22:04;2.72;;;0.70;;
76310;SDS011;65120;59.304;18.294;2023-12-07T05:24:31;0.93;;;0.52;;
76310;SDS011;65120;59.304;18.294;2023-12-07T05:26:59;1.13;;;0.40;;
76310;SDS011;65120;59.304;18.294;2023-12-07T05:29:26;1.67;;;0.82;;
76310;SDS011;65120;59.304;18.294;2023-12-07T05:31:53;3.70;;;0.93;;
76310;SDS011;65120;59.304;18.294;2023-12-07T05:34:20;1.17;;;0.60;;
76310;SDS011;65120;59.304;18.294;2023-12-07T05:36:48;1.17;;;0.82;;
76310;SDS011;65120;59.304;18.294;2023-12-07T05:39:15;1.58;;;0.60;;
76310;SDS011;65120;59.304;18.294;2023-12-07T05:41:43;1.27;;;0.50;;
76310;SDS011;65120;59.304;18.294;2023-12-07T05:44:12;2.65;;;0.55;;
76310;SDS011;65120;59.304;18.294;2023-12-07T05:46:39;1.88;;;0.65;;
76310;SDS011;65120;59.304;18.294;2023-12-07T05:49:09;1.98;;;0.60;;
76310;SDS011;65120;59.304;18.294;2023-12-07T05:51:36;2.53;;;0.57;;
76310;SDS011;65120;59.304;18.294;2023-12-07T05:54:04;3.00;;;0.60;;
76310;SDS011;65120;59.304;18.294;2023-12-07T05:56:32;2.92;;;0.90;;
76310;SDS011;65120;59.304;18.294;2023-12-07T05:58:59;1.92;;;0.70;;
76310;SDS011;65120;59.304;18.294;2023-12-07T06:01:26;2.83;;;0.80;;
76310;SDS011;65120;59.304;18.294;2023-12-07T06:03:53;3.35;;;0.95;;
76310;SDS011;65120;59.304;18.294;2023-12-07T06:06:20;2.72;;;0.77;;
76310;SDS011;65120;59.304;18.294;2023-12-07T06:08:47;2.83;;;1.05;;
76310;SDS011;65120;59.304;18.294;2023-12-07T06:11:15;2.80;;;1.05;;
76310;SDS011;65120;59.304;18.294;2023-12-07T06:13:42;3.15;;;1.33;;
76310;SDS011;65120;59.304;18.294;2023-12-07T06:16:11;2.80;;;1.52;;
76310;SDS011;65120;59.304;18.294;2023-12-07T06:18:39;5.03;;;1.10;;
76310;SDS011;65120;59.304;18.294;2023-12-07T06:21:06;3.45;;;1.35;;
76310;SDS011;65120;59.304;18.294;2023-12-07T06:23:33;2.58;;;1.17;;
76310;SDS011;65120;59.304;18.294;2023-12-07T06:26:01;2.95;;;0.98;;
76310;SDS011;65120;59.304;18.294;2023-12-07T06:28:31;3.28;;;0.95;;
76310;SDS011;65120;59.304;18.294;2023-12-07T06:31:00;2.72;;;0.85;;
76310;SDS011;65120;59.304;18.294;2023-12-07T06:33:32;3.58;;;0.77;;
76310;SDS011;65120;59.304;18.294;2023-12-07T06:35:59;1.90;;;0.80;;
76310;SDS011;65120;59.304;18.294;2023-12-07T06:38:27;1.45;;;0.68;;
76310;SDS011;65120;59.304;18.294;2023-12-07T06:40:54;4.07;;;1.13;;
76310;SDS011;65120;59.304;18.294;2023-12-07T06:43:21;2.47;;;0.85;;
76310;SDS011;65120;59.304;18.294;2023-12-07T06:45:50;1.83;;;1.20;;
76310;SDS011;65120;59.304;18.294;2023-12-07T06:48:17;2.90;;;1.15;;
76310;SDS011;65120;59.304;18.294;2023-12-07T06:50:44;2.13;;;1.00;;
76310;SDS011;65120;59.304;18.294;2023-12-07T06:53:11;16.83;;;12.88;;
76310;SDS011;65120;59.304;18.294;2023-12-07T06:55:38;2.35;;;1.00;;
76310;SDS011;65120;59.304;18.294;2023-12-07T06:58:06;4.03;;;1.60;;
76310;SDS011;65120;59.304;18.294;2023-12-07T07:00:35;1.67;;;0.80;;
76310;SDS011;65120;59.304;18.294;2023-12-07T07:03:03;4.82;;;1.38;;
76310;SDS011;65120;59.304;18.294;2023-12-07T07:05:31;1.98;;;1.25;;
76310;SDS011;65120;59.304;18.294;2023-12-07T07:07:58;2.17;;;0.80;;
76310;SDS011;65120;59.304;18.294;2023-12-07T07:10:25;1.85;;;1.00;;
76310;SDS011;65120;59.304;18.294;2023-12-07T07:12:52;1.98;;;0.90;;
76310;SDS011;65120;59.304;18.294;2023-12-07T07:15:19;1.42;;;0.70;;
76310;SDS011;65120;59.304;18.294;2023-12-07T07:17:46;1.50;;;0.80;;
76310;SDS011;65120;59.304;18.294;2023-12-07T07:20:14;3.03;;;1.10;;
76310;SDS011;65120;59.304;18.294;2023-12-07T07:22:42;1.83;;;1.40;;
76310;SDS011;65120;59.304;18.294;2023-12-07T07:25:09;3.80;;;1.20;;
76310;SDS011;65120;59.304;18.294;2023-12-07T07:27:36;3.63;;;1.45;;
76310;SDS011;65120;59.304;18.294;2023-12-07T07:30:03;3.25;;;1.27;;
76310;SDS011;65120;59.304;18.294;2023-12-07T07:32:31;4.35;;;1.30;;
76310;SDS011;65120;59.304;18.294;2023-12-07T07:34:58;2.28;;;1.00;;
76310;SDS011;65120;59.304;18.294;2023-12-07T07:37:26;3.58;;;1.27;;
76310;SDS011;65120;59.304;18.294;2023-12-07T07:39:53;4.22;;;1.50;;
76310;SDS011;65120;59.304;18.294;2023-12-07T07:42:20;3.42;;;1.98;;
76310;SDS011;65120;59.304;18.294;2023-12-07T07:44:47;4.63;;;2.22;;
76310;SDS011;65120;59.304;18.294;2023-12-07T07:47:14;7.63;;;3.15;;
76310;SDS011;65120;59.304;18.294;2023-12-07T07:49:41;8.85;;;5.25;;
76310;SDS011;65120;59.304;18.294;2023-12-07T07:52:08;8.50;;;5.55;;
76310;SDS011;65120;59.304;18.294;2023-12-07T07:54:36;10.43;;;5.43;;
76310;SDS011;65120;59.304;18.294;2023-12-07T07:57:03;11.65;;;5.32;;
76310;SDS011;65120;59.304;18.294;2023-12-07T07:59:31;11.63;;;4.88;;
76310;SDS011;65120;59.304;18.294;2023-12-07T08:01:57;8.32;;;4.70;;
76310;SDS011;65120;59.304;18.294;2023-12-07T08:04:24;9.20;;;3.88;;
76310;SDS011;65120;59.304;18.294;2023-12-07T08:06:51;6.07;;;3.28;;
76310;SDS011;65120;59.304;18.294;2023-12-07T08:09:18;5.20;;;2.53;;
76310;SDS011;65120;59.304;18.294;2023-12-07T08:11:47;5.80;;;2.55;;
76310;SDS011;65120;59.304;18.294;2023-12-07T08:14:14;6.43;;;2.25;;
76310;SDS011;65120;59.304;18.294;2023-12-07T08:16:42;4.65;;;1.67;;
76310;SDS011;65120;59.304;18.294;2023-12-07T08:19:11;6.55;;;2.58;;
76310;SDS011;65120;59.304;18.294;2023-12-07T08:21:38;3.90;;;1.70;;
76310;SDS011;65120;59.304;18.294;2023-12-07T08:24:05;4.20;;;2.53;;
76310;SDS011;65120;59.304;18.294;2023-12-07T08:26:33;5.60;;;2.00;;
76310;SDS011;65120;59.304;18.294;2023-12-07T08:29:01;9.63;;;2.55;;
76310;SDS011;65120;59.304;18.294;2023-12-07T08:31:28;9.48;;;3.33;;
76310;SDS011;65120;59.304;18.294;2023-12-07T08:33:55;11.43;;;4.70;;
76310;SDS011;65120;59.304;18.294;2023-12-07T08:36:22;5.68;;;2.78;;
76310;SDS011;65120;59.304;18.294;2023-12-07T08:38:50;6.78;;;2.78;;
76310;SDS011;65120;59.304;18.294;2023-12-07T08:41:17;7.20;;;2.05;;
76310;SDS011;65120;59.304;18.294;2023-12-07T08:43:44;3.80;;;1.92;;
76310;SDS011;65120;59.304;18.294;2023-12-07T08:46:13;5.68;;;1.80;;
76310;SDS011;65120;59.304;18.294;2023-12-07T08:48:40;6.22;;;2.33;;
76310;SDS011;65120;59.304;18.294;2023-12-07T08:51:07;4.70;;;1.77;;
76310;SDS011;65120;59.304;18.294;2023-12-07T08:53:34;5.82;;;1.80;;
76310;SDS011;65120;59.304;18.294;2023-12-07T08:56:01;4.05;;;1.63;;
76310;SDS011;65120;59.304;18.294;2023-12-07T08:58:28;4.38;;;1.90;;
76310;SDS011;65120;59.304;18.294;2023-12-07T09:00:55;4.72;;;1.73;;
76310;SDS011;65120;59.304;18.294;2023-12-07T09:03:24;4.13;;;1.83;;
76310;SDS011;65120;59.304;18.294;2023-12-07T09:05:56;5.00;;;2.28;;
76310;SDS011;65120;59.304;18.294;2023-12-07T09:08:23;3.90;;;2.05;;
76310;SDS011;65120;59.304;18.294;2023-12-07T09:10:50;4.07;;;2.15;;
76310;SDS011;65120;59.304;18.294;2023-12-07T09:13:18;4.22;;;1.83;;
76310;SDS011;65120;59.304;18.294;2023-12-07T09:15:45;3.85;;;1.52;;
76310;SDS011;65120;59.304;18.294;2023-12-07T09:18:12;5.50;;;2.13;;
76310;SDS011;65120;59.304;18.294;2023-12-07T09:20:40;5.22;;;2.80;;
76310;SDS011;65120;59.304;18.294;2023-12-07T09:23:11;8.00;;;2.30;;
76310;SDS011;65120;59.304;18.294;2023-12-07T09:25:38;6.55;;;2.42;;
76310;SDS011;65120;59.304;18.294;2023-12-07T09:28:06;5.15;;;1.98;;
76310;SDS011;65120;59.304;18.294;2023-12-07T09:30:33;5.47;;;2.30;;
76310;SDS011;65120;59.304;18.294;2023-12-07T09:33:00;5.28;;;2.35;;
76310;SDS011;65120;59.304;18.294;2023-12-07T09:35:28;5.93;;;2.40;;
76310;SDS011;65120;59.304;18.294;2023-12-07T09:37:57;4.55;;;2.58;;
76310;SDS011;65120;59.304;18.294;2023-12-07T09:40:24;4.28;;;2.83;;
76310;SDS011;65120;59.304;18.294;2023-12-07T09:42:52;6.72;;;2.55;;
76310;SDS011;65120;59.304;18.294;2023-12-07T09:45:20;6.40;;;2.08;;
76310;SDS011;65120;59.304;18.294;2023-12-07T09:47:47;5.38;;;2.28;;
76310;SDS011;65120;59.304;18.294;2023-12-07T09:50:16;4.10;;;2.40;;
76310;SDS011;65120;59.304;18.294;2023-12-07T09:52:47;5.68;;;2.45;;
76310;SDS011;65120;59.304;18.294;2023-12-07T09:55:17;4.80;;;2.53;;
76310;SDS011;65120;59.304;18.294;2023-12-07T09:57:45;5.28;;;1.83;;
76310;SDS011;65120;59.304;18.294;2023-12-07T10:00:12;6.45;;;2.30;;
76310;SDS011;65120;59.304;18.294;2023-12-07T10:02:41;4.38;;;2.17;;
76310;SDS011;65120;59.304;18.294;2023-12-07T10:05:09;5.35;;;2.22;;
76310;SDS011;65120;59.304;18.294;2023-12-07T10:07:39;8.05;;;2.55;;
76310;SDS011;65120;59.304;18.294;2023-12-07T10:10:07;5.28;;;2.53;;
76310;SDS011;65120;59.304;18.294;2023-12-07T10:12:44;5.10;;;1.90;;
76310;SDS011;65120;59.304;18.294;2023-12-07T10:15:13;3.83;;;2.35;;
76310;SDS011;65120;59.304;18.294;2023-12-07T10:17:45;5.32;;;2.38;;
76310;SDS011;65120;59.304;18.294;2023-12-07T10:20:15;3.92;;;2.03;;
76310;SDS011;65120;59.304;18.294;2023-12-07T10:22:42;7.00;;;2.45;;
76310;SDS011;65120;59.304;18.294;2023-12-07T10:25:10;4.43;;;2.22;;
76310;SDS011;65120;59.304;18.294;2023-12-07T10:27:40;7.82;;;3.05;;
76310;SDS011;65120;59.304;18.294;2023-12-07T10:30:08;4.97;;;2.88;;
76310;SDS011;65120;59.304;18.294;2023-12-07T10:32:37;4.40;;;2.17;;
76310;SDS011;65120;59.304;18.294;2023-12-07T10:35:06;4.50;;;2.15;;
76310;SDS011;65120;59.304;18.294;2023-12-07T10:37:33;5.53;;;2.42;;
76310;SDS011;65120;59.304;18.294;2023-12-07T10:40:01;3.95;;;1.95;;
76310;SDS011;65120;59.304;18.294;2023-12-07T10:42:32;4.88;;;2.80;;
76310;SDS011;65120;59.304;18.294;2023-12-07T10:45:04;6.78;;;2.10;;
76310;SDS011;65120;59.304;18.294;2023-12-07T10:47:35;5.32;;;2.38;;
76310;SDS011;65120;59.304;18.294;2023-12-07T10:50:05;4.55;;;2.00;;
76310;SDS011;65120;59.304;18.294;2023-12-07T10:52:36;4.68;;;2.67;;
76310;SDS011;65120;59.304;18.294;2023-12-07T10:55:07;7.38;;;2.65;;
76310;SDS011;65120;59.304;18.294;2023-12-07T10:57:37;6.70;;;2.65;;
76310;SDS011;65120;59.304;18.294;2023-12-07T11:00:07;6.18;;;2.45;;
76310;SDS011;65120;59.304;18.294;2023-12-07T11:02:35;6.53;;;2.90;;
76310;SDS011;65120;59.304;18.294;2023-12-07T11:05:03;5.95;;;2.70;;
76310;SDS011;65120;59.304;18.294;2023-12-07T11:07:34;8.23;;;2.72;;
76310;SDS011;65120;59.304;18.294;2023-12-07T11:10:13;6.88;;;3.25;;
76310;SDS011;65120;59.304;18.294;2023-12-07T11:12:48;7.78;;;3.55;;
76310;SDS011;65120;59.304;18.294;2023-12-07T11:15:21;7.78;;;4.00;;
76310;SDS011;65120;59.304;18.294;2023-12-07T11:17:49;10.65;;;3.78;;
76310;SDS011;65120;59.304;18.294;2023-12-07T11:20:18;6.53;;;3.92;;
76310;SDS011;65120;59.304;18.294;2023-12-07T11:22:46;7.55;;;4.00;;
76310;SDS011;65120;59.304;18.294;2023-12-07T11:25:15;9.68;;;3.95;;
76310;SDS011;65120;59.304;18.294;2023-12-07T11:27:44;9.02;;;4.15;;
76310;SDS011;65120;59.304;18.294;2023-12-07T11:30:16;7.22;;;3.15;;
76310;SDS011;65120;59.304;18.294;2023-12-07T11:32:45;5.65;;;3.78;;
76310;SDS011;65120;59.304;18.294;2023-12-07T11:35:12;7.20;;;3.17;;
76310;SDS011;65120;59.304;18.294;2023-12-07T11:40:31;8.85;;;3.70;;
76310;SDS011;65120;59.304;18.294;2023-12-07T11:42:59;5.82;;;3.03;;
76310;SDS011;65120;59.304;18.294;2023-12-07T11:45:36;6.65;;;3.60;;
76310;SDS011;65120;59.304;18.294;2023-12-07T11:48:08;7.70;;;3.75;;
76310;SDS011;65120;59.304;18.294;2023-12-07T11:53:26;6.07;;;3.58;;
76310;SDS011;65120;59.304;18.294;2023-12-07T11:55:55;6.60;;;2.97;;
76310;SDS011;65120;59.304;18.294;2023-12-07T11:58:24;7.95;;;3.40;;
76310;SDS011;65120;59.304;18.294;2023-12-07T12:00:51;5.85;;;2.65;;
76310;SDS011;65120;59.304;18.294;2023-12-07T12:03:20;5.22;;;2.15;;
76310;SDS011;65120;59.304;18.294;2023-12-07T12:05:47;6.05;;;2.38;;
76310;SDS011;65120;59.304;18.294;2023-12-07T12:08:15;3.67;;;2.42;;
76310;SDS011;65120;59.304;18.294;2023-12-07T12:10:43;4.65;;;2.25;;
76310;SDS011;65120;59.304;18.294;2023-12-07T12:13:10;4.40;;;2.13;;
76310;SDS011;65120;59.304;18.294;2023-12-07T12:15:37;4.53;;;1.63;;
76310;SDS011;65120;59.304;18.294;2023-12-07T12:18:05;4.47;;;1.92;;
76310;SDS011;65120;59.304;18.294;2023-12-07T12:20:35;4.28;;;2.17;;
76310;SDS011;65120;59.304;18.294;2023-12-07T12:23:02;3.75;;;2.35;;
76310;SDS011;65120;59.304;18.294;2023-12-07T12:25:29;4.05;;;1.95;;
76310;SDS011;65120;59.304;18.294;2023-12-07T12:27:57;4.75;;;2.22;;
76310;SDS011;65120;59.304;18.294;2023-12-07T12:30:28;5.10;;;2.70;;
76310;SDS011;65120;59.304;18.294;2023-12-07T12:32:56;3.65;;;1.90;;
76310;SDS011;65120;59.304;18.294;2023-12-07T12:35:25;4.68;;;1.63;;
76310;SDS011;65120;59.304;18.294;2023-12-07T12:37:53;5.15;;;2.05;;
76310;SDS011;65120;59.304;18.294;2023-12-07T12:40:21;3.13;;;1.77;;
76310;SDS011;65120;59.304;18.294;2023-12-07T12:42:49;4.32;;;2.15;;
76310;SDS011;65120;59.304;18.294;2023-12-07T12:45:18;4.35;;;2.13;;
76310;SDS011;65120;59.304;18.294;2023-12-07T12:47:46;5.38;;;1.75;;
76310;SDS011;65120;59.304;18.294;2023-12-07T12:53:02;3.35;;;1.58;;
76310;SDS011;65120;59.304;18.294;2023-12-07T12:55:30;3.05;;;1.75;;
76310;SDS011;65120;59.304;18.294;2023-12-07T12:57:59;4.15;;;2.10;;
76310;SDS011;65120;59.304;18.294;2023-12-07T13:00:26;6.88;;;2.67;;
76310;SDS011;65120;59.304;18.294;2023-12-07T13:02:53;3.90;;;2.40;;
76310;SDS011;65120;59.304;18.294;2023-12-07T13:05:22;3.28;;;2.53;;
76310;SDS011;65120;59.304;18.294;2023-12-07T13:07:49;5.22;;;1.92;;
76310;SDS011;65120;59.304;18.294;2023-12-07T13:10:17;5.25;;;2.80;;
76310;SDS011;65120;59.304;18.294;2023-12-07T13:12:46;5.97;;;2.95;;
76310;SDS011;65120;59.304;18.294;2023-12-07T13:15:13;5.25;;;2.60;;
76310;SDS011;65120;59.304;18.294;2023-12-07T13:17:40;5.20;;;2.92;;
76310;SDS011;65120;59.304;18.294;2023-12-07T13:20:10;10.30;;;3.03;;
76310;SDS011;65120;59.304;18.294;2023-12-07T13:22:38;5.55;;;2.25;;
76310;SDS011;65120;59.304;18.294;2023-12-07T13:25:06;5.55;;;2.75;;
76310;SDS011;65120;59.304;18.294;2023-12-07T13:27:34;7.55;;;2.92;;
76310;SDS011;65120;59.304;18.294;2023-12-07T13:30:02;5.15;;;2.60;;
76310;SDS011;65120;59.304;18.294;2023-12-07T13:32:32;5.50;;;3.20;;
76310;SDS011;65120;59.304;18.294;2023-12-07T13:34:59;6.50;;;2.83;;
76310;SDS011;65120;59.304;18.294;2023-12-07T13:37:26;3.92;;;2.25;;
76310;SDS011;65120;59.304;18.294;2023-12-07T13:39:54;9.70;;;3.60;;
76310;SDS011;65120;59.304;18.294;2023-12-07T13:42:23;4.97;;;2.60;;
76310;SDS011;65120;59.304;18.294;2023-12-07T13:44:53;7.05;;;2.38;;
76310;SDS011;65120;59.304;18.294;2023-12-07T13:47:22;6.28;;;3.05;;
76310;SDS011;65120;59.304;18.294;2023-12-07T13:49:54;4.68;;;2.55;;
76310;SDS011;65120;59.304;18.294;2023-12-07T13:52:21;4.97;;;2.72;;
76310;SDS011;65120;59.304;18.294;2023-12-07T13:54:48;9.25;;;3.60;;
76310;SDS011;65120;59.304;18.294;2023-12-07T13:57:15;7.47;;;3.40;;
76310;SDS011;65120;59.304;18.294;2023-12-07T13:59:42;5.60;;;3.17;;
76310;SDS011;65120;59.304;18.294;2023-12-07T14:02:10;6.40;;;3.10;;
76310;SDS011;65120;59.304;18.294;2023-12-07T14:04:38;4.85;;;3.25;;
76310;SDS011;65120;59.304;18.294;2023-12-07T14:07:09;6.55;;;3.10;;
76310;SDS011;65120;59.304;18.294;2023-12-07T14:09:37;4.45;;;3.08;;
76310;SDS011;65120;59.304;18.294;2023-12-07T14:12:04;6.35;;;3.58;;
76310;SDS011;65120;59.304;18.294;2023-12-07T14:14:30;5.93;;;3.03;;
76310;SDS011;65120;59.304;18.294;2023-12-07T14:16:58;11.38;;;3.72;;
76310;SDS011;65120;59.304;18.294;2023-12-07T14:19:26;4.63;;;2.30;;
76310;SDS011;65120;59.304;18.294;2023-12-07T14:21:53;6.13;;;3.30;;
76310;SDS011;65120;59.304;18.294;2023-12-07T14:24:24;5.07;;;3.03;;
76310;SDS011;65120;59.304;18.294;2023-12-07T14:26:52;7.60;;;2.70;;
76310;SDS011;65120;59.304;18.294;2023-12-07T14:29:19;7.43;;;3.45;;
76310;SDS011;65120;59.304;18.294;2023-12-07T14:31:47;4.93;;;3.03;;
76310;SDS011;65120;59.304;18.294;2023-12-07T14:34:15;8.20;;;4.25;;
76310;SDS011;65120;59.304;18.294;2023-12-07T14:36:43;6.43;;;3.70;;
76310;SDS011;65120;59.304;18.294;2023-12-07T14:39:11;4.07;;;2.35;;
76310;SDS011;65120;59.304;18.294;2023-12-07T14:41:42;6.78;;;3.65;;
76310;SDS011;65120;59.304;18.294;2023-12-07T14:44:13;5.97;;;3.30;;
76310;SDS011;65120;59.304;18.294;2023-12-07T14:46:41;5.78;;;3.45;;